sensor_id;sensor_type;location;lat;lon;timestamp;pressure;altitude;pressure_sealevel;temperature;humidity
34034;BME280;63481;52.588;22.472;2023-12-20T00:02:51;99319.88;;;4.75;100.00
34034;BME280;63481;52.588;22.472;2023-12-20T00:07:53;99319.85;;;4.76;100.00
34034;BME280;63481;52.588;22.472;2023-12-20T00:12:55;99318.09;;;4.75;100.00
34034;BME280;63481;52.588;22.472;2023-12-20T00:17:57;99317.15;;;4.75;100.00
34034;BME280;63481;52.588;22.472;2023-12-20T00:22:59;99319.04;;;4.72;100.00
34034;BME280;63481;52.588;22.472;2023-12-20T00:28:01;99319.92;;;4.72;100.00
34034;BME280;63481;52.588;22.472;2023-12-20T00:33:04;99317.23;;;4.74;100.00
34034;BME280;63481;52.588;22.472;2023-12-20T00:38:06;99310.01;;;4.77;100.00
34034;BME280;63481;52.588;22.472;2023-12-20T00:43:08;99307.24;;;4.75;100.00
34034;BME280;63481;52.588;22.472;2023-12-20T00:48:10;99307.04;;;4.76;100.00
34034;BME280;63481;52.588;22.472;2023-12-20T00:53:13;99296.16;;;4.77;100.00
34034;BME280;63481;52.588;22.472;2023-12-20T00:58:15;99290.27;;;4.77;100.00
34034;BME280;63481;52.588;22.472;2023-12-20T01:03:17;99289.54;;;4.77;100.00
34034;BME280;63481;52.588;22.472;2023-12-20T01:08:19;99280.99;;;4.75;100.00
34034;BME280;63481;52.588;22.472;2023-12-20T01:13:21;99280.90;;;4.75;100.00
34034;BME280;63481;52.588;22.472;2023-12-20T01:18:23;99272.45;;;4.75;100.00
34034;BME280;63481;52.588;22.472;2023-12-20T01:23:25;99261.01;;;4.78;100.00
34034;BME280;63481;52.588;22.472;2023-12-20T01:28:27;99260.90;;;4.78;100.00
34034;BME280;63481;52.588;22.472;2023-12-20T01:33:29;99262.88;;;4.75;100.00
34034;BME280;63481;52.588;22.472;2023-12-20T01:38:31;99261.13;;;4.75;100.00
34034;BME280;63481;52.588;22.472;2023-12-20T01:43:34;99266.91;;;4.78;100.00
34034;BME280;63481;52.588;22.472;2023-12-20T01:48:35;99254.45;;;4.79;100.00
34034;BME280;63481;52.588;22.472;2023-12-20T01:53:39;99250.31;;;4.81;100.00
34034;BME280;63481;52.588;22.472;2023-12-20T01:58:46;99251.73;;;4.76;100.00
34034;BME280;63481;52.588;22.472;2023-12-20T02:03:49;99250.77;;;4.82;100.00
34034;BME280;63481;52.588;22.472;2023-12-20T02:08:51;99248.57;;;4.81;100.00
34034;BME280;63481;52.588;22.472;2023-12-20T02:13:53;99237.17;;;4.79;100.00
34034;BME280;63481;52.588;22.472;2023-12-20T02:18:55;99230.18;;;4.78;100.00
34034;BME280;63481;52.588;22.472;2023-12-20T02:23:58;99224.75;;;4.75;100.00
34034;BME280;63481;52.588;22.472;2023-12-20T02:29:00;99217.54;;;4.72;100.00
34034;BME280;63481;52.588;22.472;2023-12-20T02:34:02;99216.07;;;4.71;100.00
34034;BME280;63481;52.588;22.472;2023-12-20T02:39:04;99213.16;;;4.72;100.00
34034;BME280;63481;52.588;22.472;2023-12-20T02:44:06;99217.46;;;4.72;100.00
34034;BME280;63481;52.588;22.472;2023-12-20T02:49:08;99215.70;;;4.71;100.00
34034;BME280;63481;52.588;22.472;2023-12-20T02:54:10;99217.83;;;4.65;100.00
34034;BME280;63481;52.588;22.472;2023-12-20T02:59:12;99207.83;;;4.65;100.00
34034;BME280;63481;52.588;22.472;2023-12-20T03:04:14;99197.11;;;4.67;100.00
34034;BME280;63481;52.588;22.472;2023-12-20T03:09:16;99200.71;;;4.65;100.00
34034;BME280;63481;52.588;22.472;2023-12-20T03:14:18;99196.90;;;4.64;100.00
34034;BME280;63481;52.588;22.472;2023-12-20T03:19:20;99170.09;;;4.64;100.00
34034;BME280;63481;52.588;22.472;2023-12-20T03:24:22;99166.42;;;4.63;100.00
34034;BME280;63481;52.588;22.472;2023-12-20T03:29:24;99170.77;;;4.64;100.00
34034;BME280;63481;52.588;22.472;2023-12-20T03:34:26;99187.52;;;4.63;100.00
34034;BME280;63481;52.588;22.472;2023-12-20T03:39:28;99176.20;;;4.66;100.00
34034;BME280;63481;52.588;22.472;2023-12-20T03:44:30;99174.42;;;4.69;100.00
34034;BME280;63481;52.588;22.472;2023-12-20T03:49:32;99175.02;;;4.70;100.00
34034;BME280;63481;52.588;22.472;2023-12-20T03:54:37;99185.54;;;4.66;100.00
34034;BME280;63481;52.588;22.472;2023-12-20T03:59:39;99176.86;;;4.62;100.00
34034;BME280;63481;52.588;22.472;2023-12-20T04:04:42;99180.48;;;4.63;100.00
34034;BME280;63481;52.588;22.472;2023-12-20T04:09:44;99179.11;;;4.65;100.00
34034;BME280;63481;52.588;22.472;2023-12-20T04:14:46;99180.21;;;4.65;100.00
34034;BME280;63481;52.588;22.472;2023-12-20T04:19:49;99170.62;;;4.64;100.00
34034;BME280;63481;52.588;22.472;2023-12-20T04:24:51;99173.77;;;4.63;100.00
34034;BME280;63481;52.588;22.472;2023-12-20T04:29:53;99175.64;;;4.63;100.00
34034;BME280;63481;52.588;22.472;2023-12-20T04:34:55;99167.10;;;4.60;100.00
34034;BME280;63481;52.588;22.472;2023-12-20T04:39:57;99146.55;;;4.60;100.00
34034;BME280;63481;52.588;22.472;2023-12-20T04:44:59;99140.03;;;4.57;100.00
34034;BME280;63481;52.588;22.472;2023-12-20T04:50:01;99153.43;;;4.57;100.00
34034;BME280;63481;52.588;22.472;2023-12-20T04:55:04;99154.03;;;4.56;100.00
34034;BME280;63481;52.588;22.472;2023-12-20T05:00:06;99156.92;;;4.55;100.00
34034;BME280;63481;52.588;22.472;2023-12-20T05:05:10;99164.42;;;4.55;100.00
34034;BME280;63481;52.588;22.472;2023-12-20T05:10:12;99164.81;;;4.58;100.00
34034;BME280;63481;52.588;22.472;2023-12-20T05:15:14;99168.74;;;4.56;100.00
34034;BME280;63481;52.588;22.472;2023-12-20T05:20:16;99172.95;;;4.54;100.00
34034;BME280;63481;52.588;22.472;2023-12-20T05:25:18;99167.67;;;4.56;100.00
34034;BME280;63481;52.588;22.472;2023-12-20T05:30:20;99165.33;;;4.56;100.00
34034;BME280;63481;52.588;22.472;2023-12-20T05:35:22;99166.92;;;4.58;100.00
34034;BME280;63481;52.588;22.472;2023-12-20T05:40:25;99165.02;;;4.57;100.00
34034;BME280;63481;52.588;22.472;2023-12-20T05:45:27;99157.25;;;4.57;100.00
34034;BME280;63481;52.588;22.472;2023-12-20T05:50:29;99161.01;;;4.61;100.00
34034;BME280;63481;52.588;22.472;2023-12-20T05:55:30;99156.48;;;4.65;100.00
34034;BME280;63481;52.588;22.472;2023-12-20T06:00:32;99151.77;;;4.63;100.00
34034;BME280;63481;52.588;22.472;2023-12-20T06:05:35;99155.48;;;4.62;100.00
34034;BME280;63481;52.588;22.472;2023-12-20T06:10:37;99158.54;;;4.63;100.00
34034;BME280;63481;52.588;22.472;2023-12-20T06:15:39;99156.58;;;4.60;100.00
34034;BME280;63481;52.588;22.472;2023-12-20T06:20:41;99155.15;;;4.58;100.00
34034;BME280;63481;52.588;22.472;2023-12-20T06:25:44;99165.33;;;4.57;100.00
34034;BME280;63481;52.588;22.472;2023-12-20T06:30:46;99168.10;;;4.58;100.00
34034;BME280;63481;52.588;22.472;2023-12-20T06:35:50;99166.89;;;4.59;100.00
34034;BME280;63481;52.588;22.472;2023-12-20T06:40:53;99165.61;;;4.64;100.00
34034;BME280;63481;52.588;22.472;2023-12-20T06:45:55;99170.52;;;4.64;100.00
34034;BME280;63481;52.588;22.472;2023-12-20T06:50:59;99171.14;;;4.63;100.00
34034;BME280;63481;52.588;22.472;2023-12-20T06:56:02;99167.56;;;4.61;100.00
34034;BME280;63481;52.588;22.472;2023-12-20T07:01:04;99168.86;;;4.63;100.00
34034;BME280;63481;52.588;22.472;2023-12-20T07:06:07;99174.31;;;4.63;100.00
34034;BME280;63481;52.588;22.472;2023-12-20T07:11:09;99176.59;;;4.64;100.00
34034;BME280;63481;52.588;22.472;2023-12-20T07:16:11;99178.17;;;4.65;100.00
34034;BME280;63481;52.588;22.472;2023-12-20T07:21:13;99178.90;;;4.63;100.00
34034;BME280;63481;52.588;22.472;2023-12-20T07:26:15;99182.14;;;4.64;100.00
34034;BME280;63481;52.588;22.472;2023-12-20T07:31:17;99181.02;;;4.64;100.00
34034;BME280;63481;52.588;22.472;2023-12-20T07:36:20;99177.94;;;4.66;100.00
34034;BME280;63481;52.588;22.472;2023-12-20T07:41:23;99173.73;;;4.70;100.00
34034;BME280;63481;52.588;22.472;2023-12-20T07:46:25;99175.26;;;4.72;100.00
34034;BME280;63481;52.588;22.472;2023-12-20T07:51:27;99180.13;;;4.73;100.00
34034;BME280;63481;52.588;22.472;2023-12-20T07:56:29;99178.12;;;4.76;100.00
34034;BME280;63481;52.588;22.472;2023-12-20T08:01:31;99174.39;;;4.77;100.00
34034;BME280;63481;52.588;22.472;2023-12-20T08:06:33;99178.79;;;4.79;100.00
34034;BME280;63481;52.588;22.472;2023-12-20T08:11:35;99174.40;;;4.79;100.00
34034;BME280;63481;52.588;22.472;2023-12-20T08:16:37;99166.54;;;4.83;100.00
34034;BME280;63481;52.588;22.472;2023-12-20T08:21:39;99166.45;;;4.85;100.00
34034;BME280;63481;52.588;22.472;2023-12-20T08:26:41;99164.87;;;4.85;100.00
34034;BME280;63481;52.588;22.472;2023-12-20T08:31:43;99148.77;;;4.83;100.00
34034;BME280;63481;52.588;22.472;2023-12-20T08:36:45;99140.38;;;4.80;100.00
34034;BME280;63481;52.588;22.472;2023-12-20T08:41:47;99145.73;;;4.87;100.00
34034;BME280;63481;52.588;22.472;2023-12-20T08:46:49;99145.27;;;4.89;100.00
34034;BME280;63481;52.588;22.472;2023-12-20T08:51:51;99148.30;;;4.92;100.00
34034;BME280;63481;52.588;22.472;2023-12-20T08:56:53;99148.98;;;4.93;100.00
34034;BME280;63481;52.588;22.472;2023-12-20T09:01:55;99142.72;;;4.94;100.00
34034;BME280;63481;52.588;22.472;2023-12-20T09:06:59;99139.04;;;4.97;100.00
34034;BME280;63481;52.588;22.472;2023-12-20T09:12:02;99139.36;;;4.95;100.00
34034;BME280;63481;52.588;22.472;2023-12-20T09:17:04;99135.02;;;4.95;100.00
34034;BME280;63481;52.588;22.472;2023-12-20T09:22:06;99130.63;;;4.98;100.00
34034;BME280;63481;52.588;22.472;2023-12-20T09:27:09;99128.99;;;4.98;100.00
34034;BME280;63481;52.588;22.472;2023-12-20T09:32:11;99123.24;;;5.00;100.00
34034;BME280;63481;52.588;22.472;2023-12-20T09:37:13;99119.73;;;5.00;100.00
34034;BME280;63481;52.588;22.472;2023-12-20T09:42:21;99114.27;;;5.01;100.00
34034;BME280;63481;52.588;22.472;2023-12-20T09:47:23;99105.48;;;5.02;100.00
34034;BME280;63481;52.588;22.472;2023-12-20T09:52:26;99095.71;;;4.99;100.00
34034;BME280;63481;52.588;22.472;2023-12-20T09:57:28;99086.31;;;5.02;100.00
34034;BME280;63481;52.588;22.472;2023-12-20T10:02:31;99086.63;;;5.07;100.00
34034;BME280;63481;52.588;22.472;2023-12-20T10:07:35;99088.35;;;5.08;100.00
34034;BME280;63481;52.588;22.472;2023-12-20T10:12:37;99082.91;;;5.09;100.00
34034;BME280;63481;52.588;22.472;2023-12-20T10:17:39;99074.94;;;5.10;100.00
34034;BME280;63481;52.588;22.472;2023-12-20T10:22:41;99077.79;;;5.11;100.00
34034;BME280;63481;52.588;22.472;2023-12-20T10:27:43;99068.60;;;5.11;100.00
34034;BME280;63481;52.588;22.472;2023-12-20T10:32:45;99064.63;;;5.17;100.00
34034;BME280;63481;52.588;22.472;2023-12-20T10:37:47;99068.90;;;5.17;100.00
34034;BME280;63481;52.588;22.472;2023-12-20T10:42:50;99062.27;;;5.19;100.00
34034;BME280;63481;52.588;22.472;2023-12-20T10:47:53;99054.75;;;5.20;100.00
34034;BME280;63481;52.588;22.472;2023-12-20T10:52:55;99053.82;;;5.20;100.00
34034;BME280;63481;52.588;22.472;2023-12-20T10:58:02;99048.85;;;5.20;100.00
34034;BME280;63481;52.588;22.472;2023-12-20T11:03:09;99041.52;;;5.16;100.00
34034;BME280;63481;52.588;22.472;2023-12-20T11:08:19;99039.34;;;5.16;100.00
34034;BME280;63481;52.588;22.472;2023-12-20T11:13:47;99033.08;;;5.14;100.00
34034;BME280;63481;52.588;22.472;2023-12-20T11:18:51;99022.80;;;5.17;100.00
34034;BME280;63481;52.588;22.472;2023-12-20T11:23:54;99019.55;;;5.20;100.00
34034;BME280;63481;52.588;22.472;2023-12-20T11:29:34;99015.35;;;5.18;100.00
34034;BME280;63481;52.588;22.472;2023-12-20T11:34:41;99014.66;;;5.16;100.00
34034;BME280;63481;52.588;22.472;2023-12-20T11:39:43;99008.36;;;5.17;100.00
34034;BME280;63481;52.588;22.472;2023-12-20T11:44:45;99003.11;;;5.16;100.00
34034;BME280;63481;52.588;22.472;2023-12-20T11:49:48;98996.38;;;5.19;100.00
34034;BME280;63481;52.588;22.472;2023-12-20T11:54:51;98988.84;;;5.22;100.00
34034;BME280;63481;52.588;22.472;2023-12-20T11:59:53;98974.93;;;5.20;100.00
34034;BME280;63481;52.588;22.472;2023-12-20T12:04:55;98974.45;;;5.22;100.00
34034;BME280;63481;52.588;22.472;2023-12-20T12:09:58;98962.86;;;5.23;100.00
34034;BME280;63481;52.588;22.472;2023-12-20T12:15:00;98954.37;;;5.22;100.00
34034;BME280;63481;52.588;22.472;2023-12-20T12:20:04;98953.47;;;5.26;100.00
34034;BME280;63481;52.588;22.472;2023-12-20T12:25:10;98949.08;;;5.22;100.00
34034;BME280;63481;52.588;22.472;2023-12-20T12:30:13;98940.38;;;5.21;100.00
34034;BME280;63481;52.588;22.472;2023-12-20T12:35:19;98938.27;;;5.17;100.00
34034;BME280;63481;52.588;22.472;2023-12-20T12:40:22;98932.09;;;5.12;100.00
34034;BME280;63481;52.588;22.472;2023-12-20T12:45:24;98925.58;;;5.12;100.00
34034;BME280;63481;52.588;22.472;2023-12-20T12:50:26;98931.73;;;5.16;100.00
34034;BME280;63481;52.588;22.472;2023-12-20T12:55:30;98925.70;;;5.14;100.00
34034;BME280;63481;52.588;22.472;2023-12-20T13:00:32;98920.38;;;5.11;100.00
34034;BME280;63481;52.588;22.472;2023-12-20T13:05:35;98923.06;;;5.15;100.00
34034;BME280;63481;52.588;22.472;2023-12-20T13:10:37;98920.02;;;5.15;100.00
34034;BME280;63481;52.588;22.472;2023-12-20T13:15:39;98915.70;;;5.19;100.00
34034;BME280;63481;52.588;22.472;2023-12-20T13:20:41;98917.59;;;5.11;100.00
34034;BME280;63481;52.588;22.472;2023-12-20T13:25:44;98915.70;;;5.07;100.00
34034;BME280;63481;52.588;22.472;2023-12-20T13:30:49;98910.98;;;5.01;100.00
34034;BME280;63481;52.588;22.472;2023-12-20T13:35:52;98916.55;;;4.98;100.00
34034;BME280;63481;52.588;22.472;2023-12-20T13:40:55;98912.86;;;5.02;100.00
34034;BME280;63481;52.588;22.472;2023-12-20T13:45:57;98902.22;;;5.03;100.00
34034;BME280;63481;52.588;22.472;2023-12-20T13:50:59;98893.88;;;5.03;100.00
34034;BME280;63481;52.588;22.472;2023-12-20T13:56:01;98896.20;;;5.04;100.00
34034;BME280;63481;52.588;22.472;2023-12-20T14:01:04;98903.67;;;4.98;100.00
34034;BME280;63481;52.588;22.472;2023-12-20T14:06:06;98899.41;;;4.97;100.00
34034;BME280;63481;52.588;22.472;2023-12-20T14:11:08;98900.66;;;4.93;100.00
34034;BME280;63481;52.588;22.472;2023-12-20T14:16:10;98901.11;;;4.87;100.00
34034;BME280;63481;52.588;22.472;2023-12-20T14:21:12;98893.55;;;4.86;100.00
34034;BME280;63481;52.588;22.472;2023-12-20T14:26:14;98892.48;;;4.79;100.00
34034;BME280;63481;52.588;22.472;2023-12-20T14:31:16;98893.50;;;4.71;100.00
34034;BME280;63481;52.588;22.472;2023-12-20T14:36:18;98903.73;;;4.63;100.00
34034;BME280;63481;52.588;22.472;2023-12-20T14:41:21;98901.65;;;4.55;100.00
34034;BME280;63481;52.588;22.472;2023-12-20T14:46:26;98893.69;;;4.55;100.00
34034;BME280;63481;52.588;22.472;2023-12-20T14:51:28;98888.09;;;4.55;100.00
34034;BME280;63481;52.588;22.472;2023-12-20T14:56:30;98883.96;;;4.49;100.00
34034;BME280;63481;52.588;22.472;2023-12-20T15:01:32;98888.54;;;4.37;100.00
34034;BME280;63481;52.588;22.472;2023-12-20T15:06:34;98888.05;;;4.22;100.00
34034;BME280;63481;52.588;22.472;2023-12-20T15:11:36;98894.84;;;4.12;100.00
34034;BME280;63481;52.588;22.472;2023-12-20T15:16:38;98907.12;;;4.05;100.00
34034;BME280;63481;52.588;22.472;2023-12-20T15:21:41;98911.17;;;4.04;100.00
34034;BME280;63481;52.588;22.472;2023-12-20T15:26:44;98910.13;;;3.97;100.00
34034;BME280;63481;52.588;22.472;2023-12-20T15:31:47;98913.17;;;3.92;100.00
34034;BME280;63481;52.588;22.472;2023-12-20T15:36:50;98916.50;;;3.90;100.00
34034;BME280;63481;52.588;22.472;2023-12-20T15:41:52;98906.49;;;3.85;100.00
34034;BME280;63481;52.588;22.472;2023-12-20T15:46:54;98908.17;;;3.80;100.00
34034;BME280;63481;52.588;22.472;2023-12-20T15:51:56;98915.50;;;3.74;100.00
34034;BME280;63481;52.588;22.472;2023-12-20T15:56:58;98909.58;;;3.69;100.00
34034;BME280;63481;52.588;22.472;2023-12-20T16:02:00;98898.66;;;3.68;100.00
34034;BME280;63481;52.588;22.472;2023-12-20T16:07:02;98892.08;;;3.71;100.00
34034;BME280;63481;52.588;22.472;2023-12-20T16:12:04;98876.36;;;3.70;100.00
34034;BME280;63481;52.588;22.472;2023-12-20T16:17:06;98877.93;;;3.65;100.00
34034;BME280;63481;52.588;22.472;2023-12-20T16:22:08;98874.56;;;3.72;100.00
34034;BME280;63481;52.588;22.472;2023-12-20T16:27:10;98865.22;;;3.71;100.00
34034;BME280;63481;52.588;22.472;2023-12-20T16:32:12;98864.38;;;3.71;100.00
34034;BME280;63481;52.588;22.472;2023-12-20T16:37:15;98860.06;;;3.69;100.00
34034;BME280;63481;52.588;22.472;2023-12-20T16:42:16;98848.48;;;3.67;100.00
34034;BME280;63481;52.588;22.472;2023-12-20T16:47:18;98850.01;;;3.62;100.00
34034;BME280;63481;52.588;22.472;2023-12-20T16:52:20;98843.55;;;3.66;100.00
34034;BME280;63481;52.588;22.472;2023-12-20T16:57:22;98848.85;;;3.74;100.00
34034;BME280;63481;52.588;22.472;2023-12-20T17:02:24;98840.90;;;3.76;100.00
34034;BME280;63481;52.588;22.472;2023-12-20T17:07:26;98840.88;;;3.77;100.00
34034;BME280;63481;52.588;22.472;2023-12-20T17:12:31;98829.13;;;3.75;100.00
34034;BME280;63481;52.588;22.472;2023-12-20T17:17:33;98828.61;;;3.76;100.00
34034;BME280;63481;52.588;22.472;2023-12-20T17:22:35;98823.39;;;3.75;100.00
34034;BME280;63481;52.588;22.472;2023-12-20T17:27:37;98823.35;;;3.77;100.00
34034;BME280;63481;52.588;22.472;2023-12-20T17:32:39;98815.09;;;3.82;100.00
34034;BME280;63481;52.588;22.472;2023-12-20T17:37:42;98812.13;;;3.83;100.00
34034;BME280;63481;52.588;22.472;2023-12-20T17:42:45;98809.73;;;3.83;100.00
34034;BME280;63481;52.588;22.472;2023-12-20T17:47:47;98806.69;;;3.83;100.00
34034;BME280;63481;52.588;22.472;2023-12-20T17:52:49;98809.08;;;3.83;100.00
34034;BME280;63481;52.588;22.472;2023-12-20T17:57:51;98799.80;;;3.85;100.00
34034;BME280;63481;52.588;22.472;2023-12-20T18:02:53;98797.27;;;3.84;100.00
34034;BME280;63481;52.588;22.472;2023-12-20T18:07:56;98801.75;;;3.74;100.00
34034;BME280;63481;52.588;22.472;2023-12-20T18:12:58;98795.05;;;3.70;100.00
34034;BME280;63481;52.588;22.472;2023-12-20T18:18:00;98790.75;;;3.68;100.00
34034;BME280;63481;52.588;22.472;2023-12-20T18:23:02;98784.36;;;3.71;100.00
34034;BME280;63481;52.588;22.472;2023-12-20T18:28:05;98790.33;;;3.75;100.00
34034;BME280;63481;52.588;22.472;2023-12-20T18:33:07;98786.81;;;3.79;100.00
34034;BME280;63481;52.588;22.472;2023-12-20T18:38:10;98782.71;;;3.79;100.00
34034;BME280;63481;52.588;22.472;2023-12-20T18:43:12;98779.59;;;3.82;100.00
34034;BME280;63481;52.588;22.472;2023-12-20T18:48:14;98779.92;;;3.84;100.00
34034;BME280;63481;52.588;22.472;2023-12-20T18:53:16;98776.48;;;3.84;100.00
34034;BME280;63481;52.588;22.472;2023-12-20T18:58:18;98770.80;;;3.83;100.00
34034;BME280;63481;52.588;22.472;2023-12-20T19:03:20;98761.02;;;3.82;100.00
34034;BME280;63481;52.588;22.472;2023-12-20T19:08:23;98751.31;;;3.79;100.00
34034;BME280;63481;52.588;22.472;2023-12-20T19:13:25;98734.55;;;3.76;100.00
34034;BME280;63481;52.588;22.472;2023-12-20T19:18:32;98737.91;;;3.75;100.00
34034;BME280;63481;52.588;22.472;2023-12-20T19:23:35;98736.67;;;3.76;100.00
34034;BME280;63481;52.588;22.472;2023-12-20T19:28:41;98732.09;;;3.77;100.00
34034;BME280;63481;52.588;22.472;2023-12-20T19:33:45;98731.88;;;3.73;100.00
34034;BME280;63481;52.588;22.472;2023-12-20T19:38:52;98722.98;;;3.69;100.00
34034;BME280;63481;52.588;22.472;2023-12-20T19:43:54;98718.47;;;3.67;100.00
34034;BME280;63481;52.588;22.472;2023-12-20T19:49:00;98714.30;;;3.67;100.00
34034;BME280;63481;52.588;22.472;2023-12-20T19:54:02;98704.65;;;3.68;100.00
34034;BME280;63481;52.588;22.472;2023-12-20T19:59:04;98699.41;;;3.69;100.00
34034;BME280;63481;52.588;22.472;2023-12-20T20:04:10;98696.45;;;3.67;100.00
34034;BME280;63481;52.588;22.472;2023-12-20T20:09:12;98693.37;;;3.67;100.00
34034;BME280;63481;52.588;22.472;2023-12-20T20:14:14;98696.45;;;3.66;100.00
34034;BME280;63481;52.588;22.472;2023-12-20T20:19:17;98697.27;;;3.63;100.00
34034;BME280;63481;52.588;22.472;2023-12-20T20:24:19;98694.24;;;3.58;100.00
34034;BME280;63481;52.588;22.472;2023-12-20T20:29:21;98692.83;;;3.55;100.00
34034;BME280;63481;52.588;22.472;2023-12-20T20:34:23;98696.79;;;3.53;100.00
34034;BME280;63481;52.588;22.472;2023-12-20T20:39:29;98695.77;;;3.50;100.00
34034;BME280;63481;52.588;22.472;2023-12-20T20:44:31;98690.87;;;3.49;100.00
34034;BME280;63481;52.588;22.472;2023-12-20T20:49:33;98687.30;;;3.50;100.00
34034;BME280;63481;52.588;22.472;2023-12-20T20:54:36;98681.66;;;3.49;100.00
34034;BME280;63481;52.588;22.472;2023-12-20T20:59:38;98688.03;;;3.50;100.00
34034;BME280;63481;52.588;22.472;2023-12-20T21:04:43;98690.25;;;3.49;100.00
34034;BME280;63481;52.588;22.472;2023-12-20T21:09:46;98685.88;;;3.49;100.00
34034;BME280;63481;52.588;22.472;2023-12-20T21:14:49;98688.80;;;3.52;100.00
34034;BME280;63481;52.588;22.472;2023-12-20T21:19:51;98684.36;;;3.60;100.00
34034;BME280;63481;52.588;22.472;2023-12-20T21:24:54;98679.41;;;3.62;100.00
34034;BME280;63481;52.588;22.472;2023-12-20T21:29:56;98678.44;;;3.66;100.00
34034;BME280;63481;52.588;22.472;2023-12-20T21:34:58;98672.64;;;3.68;100.00
34034;BME280;63481;52.588;22.472;2023-12-20T21:40:00;98672.11;;;3.60;100.00
34034;BME280;63481;52.588;22.472;2023-12-20T21:45:02;98679.64;;;3.55;100.00
34034;BME280;63481;52.588;22.472;2023-12-20T21:50:04;98684.67;;;3.59;100.00
34034;BME280;63481;52.588;22.472;2023-12-20T21:55:07;98684.91;;;3.55;100.00
34034;BME280;63481;52.588;22.472;2023-12-20T22:00:10;98698.52;;;3.47;100.00
34034;BME280;63481;52.588;22.472;2023-12-20T22:05:12;98682.69;;;3.41;100.00
34034;BME280;63481;52.588;22.472;2023-12-20T22:10:14;98698.33;;;3.36;100.00
34034;BME280;63481;52.588;22.472;2023-12-20T22:15:16;98704.73;;;3.28;100.00
34034;BME280;63481;52.588;22.472;2023-12-20T22:20:18;98720.15;;;3.19;100.00
34034;BME280;63481;52.588;22.472;2023-12-20T22:25:20;98722.70;;;3.09;100.00
34034;BME280;63481;52.588;22.472;2023-12-20T22:30:22;98721.32;;;3.10;100.00
34034;BME280;63481;52.588;22.472;2023-12-20T22:35:24;98727.05;;;3.10;100.00
34034;BME280;63481;52.588;22.472;2023-12-20T22:40:26;98724.75;;;3.14;100.00
34034;BME280;63481;52.588;22.472;2023-12-20T22:45:28;98724.41;;;3.11;100.00
34034;BME280;63481;52.588;22.472;2023-12-20T22:50:30;98722.08;;;3.07;100.00
34034;BME280;63481;52.588;22.472;2023-12-20T22:55:32;98722.29;;;3.07;100.00
34034;BME280;63481;52.588;22.472;2023-12-20T23:00:34;98715.74;;;3.05;100.00
34034;BME280;63481;52.588;22.472;2023-12-20T23:05:36;98708.54;;;2.98;100.00
34034;BME280;63481;52.588;22.472;2023-12-20T23:10:38;98710.15;;;2.88;100.00
34034;BME280;63481;52.588;22.472;2023-12-20T23:15:41;98718.31;;;2.76;100.00
34034;BME280;63481;52.588;22.472;2023-12-20T23:20:58;98719.77;;;2.62;100.00
34034;BME280;63481;52.588;22.472;2023-12-20T23:26:01;98719.38;;;2.58;100.00
34034;BME280;63481;52.588;22.472;2023-12-20T23:31:03;98723.66;;;2.58;100.00
34034;BME280;63481;52.588;22.472;2023-12-20T23:36:05;98732.11;;;2.62;100.00
34034;BME280;63481;52.588;22.472;2023-12-20T23:41:07;98736.34;;;2.63;100.00
34034;BME280;63481;52.588;22.472;2023-12-20T23:46:10;98736.42;;;2.64;100.00
34034;BME280;63481;52.588;22.472;2023-12-20T23:51:12;98734.77;;;2.48;100.00
34034;BME280;63481;52.588;22.472;2023-12-20T23:56:14;98736.59;;;2.32;100.00
